Time;durP1;ratioP1;P1;durP2;ratioP2;P2;SDS_P1;SDS_P2;PMS_P1;PMS_P2;Temp;Humidity;BMP_temperature;BMP_pressure;BME280_temperature;BME280_humidity;BME280_pressure;Samples;Min_cycle;Max_cycle;Signal;HPM_P1;HPM_P2
2021/06/20 00:00:50;;;;;;;14.25;7.82;;;21.50;99.90;;;;;;5033822;28;20099;-80
2021/06/20 00:03:17;;;;;;;14.27;8.07;;;21.30;99.90;;;;;;5033774;28;20478;-77
2021/06/20 00:05:51;;;;;;;13.20;8.35;;;21.30;99.90;;;;;;5032970;28;20099;-77
2021/06/20 00:08:18;;;;;;;14.27;8.23;;;21.30;99.90;;;;;;5034615;28;20065;-78
2021/06/20 00:10:46;;;;;;;11.68;8.32;;;21.30;99.90;;;;;;5035690;28;20124;-78
2021/06/20 00:13:12;;;;;;;13.65;8.63;;;21.40;99.90;;;;;;5033611;28;20128;-77
2021/06/20 00:15:41;;;;;;;17.88;9.18;;;21.40;99.90;;;;;;5036659;28;20084;-79
2021/06/20 00:18:09;;;;;;;12.27;8.32;;;21.50;99.90;;;;;;5034075;28;20050;-77
2021/06/20 00:20:38;;;;;;;13.88;8.18;;;21.50;99.90;;;;;;5033734;28;20141;-77
2021/06/20 00:23:05;;;;;;;13.80;7.20;;;21.40;99.90;;;;;;5033360;28;20526;-77
2021/06/20 00:25:33;;;;;;;15.50;6.85;;;21.40;99.90;;;;;;5034022;28;20125;-77
2021/06/20 00:28:01;;;;;;;11.85;6.50;;;21.30;99.90;;;;;;5033797;28;20492;-77
2021/06/20 00:30:30;;;;;;;14.05;6.57;;;21.30;99.90;;;;;;5033695;28;20052;-76
2021/06/20 00:32:59;;;;;;;11.35;6.57;;;21.30;99.90;;;;;;5033414;28;20858;-79
2021/06/20 00:35:26;;;;;;;10.85;5.70;;;21.30;99.90;;;;;;5033507;28;20096;-76
2021/06/20 00:37:54;;;;;;;10.82;6.45;;;21.20;99.90;;;;;;5033439;28;20497;-79
2021/06/20 00:40:22;;;;;;;8.82;5.32;;;21.10;99.90;;;;;;5033999;28;20060;-78
2021/06/20 00:42:50;;;;;;;11.38;6.00;;;21.00;99.90;;;;;;5034110;28;20084;-77
2021/06/20 00:45:19;;;;;;;10.35;5.32;;;20.90;99.90;;;;;;5034785;28;20081;-78
2021/06/20 00:47:46;;;;;;;11.02;5.72;;;20.90;99.90;;;;;;5034019;28;20080;-78
2021/06/20 00:50:16;;;;;;;10.48;5.65;;;20.80;99.90;;;;;;5033631;28;20063;-78
2021/06/20 00:52:43;;;;;;;11.57;5.85;;;20.80;99.90;;;;;;5033246;28;20048;-77
2021/06/20 00:55:11;;;;;;;10.35;5.55;;;20.70;99.90;;;;;;5033185;28;20104;-78
2021/06/20 00:57:38;;;;;;;11.88;6.03;;;20.70;99.90;;;;;;5033275;28;20104;-77
2021/06/20 01:00:07;;;;;;;15.52;6.13;;;20.70;99.90;;;;;;5033085;28;20483;-78
2021/06/20 01:02:35;;;;;;;8.52;5.00;;;20.70;99.90;;;;;;5032710;28;20124;-78
2021/06/20 01:05:02;;;;;;;9.27;5.28;;;20.70;99.90;;;;;;5032590;28;20144;-77
2021/06/20 01:07:31;;;;;;;12.30;4.97;;;20.70;99.90;;;;;;5032791;28;20132;-77
2021/06/20 01:09:57;;;;;;;8.85;4.68;;;20.70;99.90;;;;;;5032706;28;20124;-78
2021/06/20 01:12:25;;;;;;;7.70;4.60;;;20.80;99.90;;;;;;5032854;28;20128;-77
2021/06/20 01:14:52;;;;;;;9.27;4.88;;;20.80;99.90;;;;;;5032361;28;20136;-79
2021/06/20 01:17:20;;;;;;;11.10;5.00;;;20.80;99.90;;;;;;5032396;28;20132;-77
2021/06/20 01:19:48;;;;;;;8.73;5.05;;;20.80;99.90;;;;;;5032505;28;20073;-76
2021/06/20 01:22:22;;;;;;;9.75;5.10;;;20.80;99.90;;;;;;5032470;28;20120;-77
2021/06/20 01:24:55;;;;;;;10.35;4.60;;;20.90;99.90;;;;;;5032433;28;20136;-77
2021/06/20 01:27:25;;;;;;;9.32;4.97;;;21.00;99.90;;;;;;5032675;28;20136;-77
2021/06/20 01:29:52;;;;;;;8.75;4.43;;;21.10;99.90;;;;;;5032438;28;20147;-76
2021/06/20 01:32:19;;;;;;;9.20;4.82;;;21.10;99.90;;;;;;5032329;28;20137;-77
2021/06/20 01:34:47;;;;;;;10.27;5.30;;;21.20;99.90;;;;;;5033855;28;20080;-77
2021/06/20 01:37:16;;;;;;;8.38;4.55;;;21.10;99.90;;;;;;5032745;28;20541;-77
2021/06/20 01:39:46;;;;;;;7.43;5.07;;;21.00;99.90;;;;;;5033217;28;20072;-77
2021/06/20 01:42:14;;;;;;;9.75;5.13;;;21.10;99.90;;;;;;5033735;28;20124;-77
2021/06/20 01:44:49;;;;;;;8.15;4.90;;;21.00;99.90;;;;;;5033380;28;20053;-77
2021/06/20 01:47:17;;;;;;;7.03;4.72;;;21.00;99.90;;;;;;5033546;28;20084;-77
2021/06/20 01:49:44;;;;;;;7.63;5.00;;;20.90;99.90;;;;;;5033740;28;20534;-77
2021/06/20 01:52:11;;;;;;;7.43;4.97;;;21.00;99.90;;;;;;5032679;28;20057;-77
2021/06/20 01:54:49;;;;;;;8.25;4.95;;;21.10;99.90;;;;;;5032508;28;20128;-76
2021/06/20 01:57:19;;;;;;;7.18;4.93;;;21.10;99.90;;;;;;5032256;28;20135;-77
2021/06/20 01:59:46;;;;;;;9.73;5.30;;;21.10;99.90;;;;;;5032245;28;20520;-78
2021/06/20 02:02:13;;;;;;;10.38;5.60;;;21.00;99.90;;;;;;5032215;28;20124;-77
2021/06/20 02:04:40;;;;;;;13.88;5.85;;;20.90;99.90;;;;;;5031952;28;20136;-76
2021/06/20 02:07:07;;;;;;;8.10;5.60;;;20.90;99.90;;;;;;5032334;28;20115;-76
2021/06/20 02:09:34;;;;;;;11.73;6.10;;;20.80;99.90;;;;;;5032009;28;20128;-77
2021/06/20 02:12:01;;;;;;;8.07;5.68;;;20.90;99.90;;;;;;5032040;28;20060;-76
2021/06/20 02:14:29;;;;;;;11.48;6.13;;;20.80;99.90;;;;;;5031629;28;20243;-76
2021/06/20 02:16:56;;;;;;;13.02;6.57;;;20.80;99.90;;;;;;5032018;28;20069;-76
2021/06/20 02:19:23;;;;;;;12.27;7.30;;;20.80;99.90;;;;;;5032027;28;20131;-77
2021/06/20 02:21:50;;;;;;;11.55;6.68;;;20.90;99.90;;;;;;5031447;28;20128;-76
2021/06/20 02:24:17;;;;;;;13.90;7.22;;;21.00;99.90;;;;;;5031483;28;20141;-76
2021/06/20 02:26:44;;;;;;;11.90;7.03;;;21.00;99.90;;;;;;5031838;28;20136;-77
2021/06/20 02:29:11;;;;;;;12.85;7.22;;;21.10;99.90;;;;;;5031414;28;20060;-77
2021/06/20 02:31:39;;;;;;;12.68;6.68;;;21.20;99.90;;;;;;5031619;28;20132;-76
2021/06/20 02:34:06;;;;;;;11.07;6.68;;;21.20;99.90;;;;;;5031275;28;20047;-77
2021/06/20 02:36:32;;;;;;;14.45;6.50;;;21.20;99.90;;;;;;5031965;28;20081;-77
2021/06/20 02:38:59;;;;;;;11.55;7.07;;;21.20;99.90;;;;;;5031589;28;20089;-76
2021/06/20 02:41:27;;;;;;;15.52;7.45;;;21.20;99.90;;;;;;5031541;28;20136;-76
2021/06/20 02:43:55;;;;;;;12.27;7.15;;;21.20;99.90;;;;;;5031496;28;20053;-77
2021/06/20 02:46:22;;;;;;;15.70;8.32;;;21.20;99.90;;;;;;5031657;28;20064;-76
2021/06/20 02:48:50;;;;;;;13.38;7.30;;;21.20;99.90;;;;;;5031745;28;20084;-77
2021/06/20 02:51:17;;;;;;;17.23;8.27;;;21.20;99.90;;;;;;5031290;28;20128;-78
2021/06/20 02:53:44;;;;;;;14.63;8.90;;;21.30;99.90;;;;;;5031683;28;20471;-77
2021/06/20 02:56:11;;;;;;;20.70;8.98;;;21.30;99.90;;;;;;5031662;28;20128;-77
2021/06/20 02:58:38;;;;;;;15.95;8.23;;;21.30;99.90;;;;;;5031904;28;20155;-78
2021/06/20 03:01:05;;;;;;;18.83;8.02;;;21.30;99.90;;;;;;5031837;28;20128;-78
2021/06/20 03:03:31;;;;;;;16.60;8.50;;;21.40;99.90;;;;;;5031162;28;20076;-77
2021/06/20 03:06:02;;;;;;;14.27;7.90;;;21.40;99.90;;;;;;5031554;28;20109;-78
2021/06/20 03:08:29;;;;;;;16.48;8.75;;;21.40;99.90;;;;;;5031673;28;20467;-76
2021/06/20 03:10:56;;;;;;;12.40;8.18;;;21.40;99.90;;;;;;5031342;28;20053;-77
2021/06/20 03:13:23;;;;;;;12.95;7.47;;;21.40;99.90;;;;;;5030755;28;20132;-76
2021/06/20 03:15:50;;;;;;;9.98;6.10;;;21.50;99.90;;;;;;5031086;28;20049;-78
2021/06/20 03:18:17;;;;;;;14.98;6.55;;;21.50;99.90;;;;;;5031315;28;20088;-77
2021/06/20 03:20:44;;;;;;;11.40;6.45;;;21.40;99.90;;;;;;5031451;28;20131;-77
2021/06/20 03:23:12;;;;;;;9.02;5.38;;;21.40;99.90;;;;;;5030371;28;20049;-76
2021/06/20 03:25:39;;;;;;;9.18;5.10;;;21.40;99.90;;;;;;5030956;28;20459;-76
2021/06/20 03:28:07;;;;;;;9.02;5.25;;;21.40;99.90;;;;;;5030849;28;20124;-77
2021/06/20 03:30:34;;;;;;;9.80;4.53;;;21.40;99.90;;;;;;5030662;28;20137;-75
2021/06/20 03:33:02;;;;;;;9.07;4.85;;;21.30;99.90;;;;;;5030203;28;20092;-75
2021/06/20 03:35:29;;;;;;;9.23;4.47;;;21.30;99.90;;;;;;5030906;28;20486;-75
2021/06/20 03:37:56;;;;;;;8.20;4.90;;;21.30;99.90;;;;;;5030913;28;20133;-74
2021/06/20 03:40:24;;;;;;;7.15;4.80;;;21.30;99.90;;;;;;5031719;28;20136;-75
2021/06/20 03:42:51;;;;;;;7.45;4.88;;;21.30;99.90;;;;;;5034059;28;20128;-74
2021/06/20 03:45:18;;;;;;;10.55;4.25;;;21.20;99.90;;;;;;5034205;28;20136;-75
2021/06/20 03:47:45;;;;;;;10.45;4.65;;;21.20;99.90;;;;;;5034394;28;20053;-74
2021/06/20 03:50:12;;;;;;;9.88;4.70;;;21.10;99.90;;;;;;5034746;28;20054;-74
2021/06/20 03:52:40;;;;;;;13.98;5.72;;;21.10;99.90;;;;;;5034543;28;20128;-74
2021/06/20 03:55:09;;;;;;;10.00;5.07;;;21.10;99.90;;;;;;5034044;28;20141;-76
2021/06/20 03:57:37;;;;;;;8.60;4.80;;;21.00;99.90;;;;;;5034263;28;20132;-77
2021/06/20 04:00:06;;;;;;;8.65;4.63;;;21.10;99.90;;;;;;5034316;28;20169;-76
2021/06/20 04:02:33;;;;;;;11.80;4.72;;;21.10;99.90;;;;;;5034400;28;20053;-76
2021/06/20 04:05:00;;;;;;;8.15;4.47;;;21.10;99.90;;;;;;5034175;28;20081;-75
2021/06/20 04:07:27;;;;;;;11.57;4.80;;;21.00;99.90;;;;;;5034036;28;20137;-76
2021/06/20 04:09:54;;;;;;;11.02;4.75;;;21.00;99.90;;;;;;5033998;28;20054;-75
2021/06/20 04:12:21;;;;;;;8.25;5.22;;;21.00;99.90;;;;;;5034148;28;20077;-76
2021/06/20 04:14:49;;;;;;;8.73;4.38;;;21.00;99.90;;;;;;5033389;28;20132;-76
2021/06/20 04:17:16;;;;;;;9.55;4.30;;;21.10;99.90;;;;;;5033597;28;20049;-76
2021/06/20 04:19:43;;;;;;;10.68;4.85;;;21.30;99.90;;;;;;5043266;22;20157;-76
2021/06/20 04:22:10;;;;;;;9.57;4.43;;;21.40;99.90;;;;;;4994041;28;20538;-76
2021/06/20 04:24:37;;;;;;;8.57;4.32;;;21.50;99.90;;;;;;4993599;28;20054;-76
2021/06/20 04:27:04;;;;;;;6.35;4.00;;;21.50;99.90;;;;;;4994299;28;20137;-76
2021/06/20 04:29:31;;;;;;;10.63;4.55;;;21.40;99.90;;;;;;4993956;28;20050;-78
2021/06/20 04:31:59;;;;;;;11.07;4.25;;;21.40;99.90;;;;;;4994378;28;20050;-76
2021/06/20 04:34:26;;;;;;;10.13;4.80;;;21.40;99.90;;;;;;4996017;28;20054;-77
2021/06/20 04:36:53;;;;;;;5.60;4.15;;;21.40;99.90;;;;;;4994540;28;20396;-76
2021/06/20 04:39:21;;;;;;;6.47;4.38;;;21.40;99.90;;;;;;4993712;28;20054;-78
2021/06/20 04:41:48;;;;;;;7.60;4.20;;;21.50;99.90;;;;;;4993604;28;20574;-78
2021/06/20 04:47:00;;;;;;;7.97;4.47;;;21.50;99.90;;;;;;4993805;28;20057;-77
2021/06/20 04:49:27;;;;;;;8.07;4.60;;;21.60;99.90;;;;;;4993961;28;20133;-78
2021/06/20 04:51:54;;;;;;;6.97;4.13;;;21.80;99.90;;;;;;4993312;28;20053;-79
2021/06/20 04:54:21;;;;;;;6.80;4.28;;;21.90;99.90;;;;;;4993459;28;20057;-78
2021/06/20 04:56:48;;;;;;;5.88;4.07;;;22.10;99.90;;;;;;4993738;28;20610;-77
2021/06/20 04:59:15;;;;;;;9.55;4.50;;;22.40;99.90;;;;;;4993789;28;20054;-78
2021/06/20 05:01:42;;;;;;;9.82;4.15;;;22.70;99.90;;;;;;4993746;28;20137;-77
2021/06/20 05:04:10;;;;;;;8.48;4.00;;;23.00;99.90;;;;;;4993180;28;20125;-78
2021/06/20 05:06:37;;;;;;;8.02;4.20;;;23.40;99.90;;;;;;4993584;28;20054;-76
2021/06/20 05:09:05;;;;;;;7.10;3.88;;;23.70;99.90;;;;;;4993488;28;20133;-77
2021/06/20 05:11:32;;;;;;;7.47;3.60;;;24.10;99.90;;;;;;4993585;28;20135;-77
2021/06/20 05:13:58;;;;;;;7.40;4.03;;;24.40;99.90;;;;;;4993329;28;20066;-77
2021/06/20 05:16:25;;;;;;;5.00;3.60;;;24.70;99.90;;;;;;4993307;28;20109;-78
2021/06/20 05:18:52;;;;;;;5.53;3.70;;;25.10;99.90;;;;;;4993518;28;20133;-78
2021/06/20 05:21:20;;;;;;;6.93;3.60;;;25.50;99.90;;;;;;4993017;28;20050;-76
2021/06/20 05:23:48;;;;;;;7.65;3.72;;;25.80;99.90;;;;;;4992801;28;20363;-78
2021/06/20 05:26:15;;;;;;;12.20;4.30;;;26.10;99.90;;;;;;4993110;28;20566;-75
2021/06/20 05:28:42;;;;;;;7.72;3.60;;;26.40;99.90;;;;;;4993170;28;20180;-77
2021/06/20 05:31:09;;;;;;;5.90;3.85;;;27.00;99.90;;;;;;4993097;28;20050;-76
2021/06/20 05:33:35;;;;;;;5.90;3.20;;;27.20;99.90;;;;;;4993106;28;20575;-76
2021/06/20 05:36:02;;;;;;;7.05;3.67;;;27.20;99.90;;;;;;4993353;28;20096;-79
2021/06/20 05:38:31;;;;;;;5.65;3.63;;;27.40;99.90;;;;;;4993962;28;20046;-77
2021/06/20 05:40:59;;;;;;;7.75;3.47;;;27.60;99.90;;;;;;4993968;28;20125;-78
2021/06/20 05:43:28;;;;;;;6.82;3.65;;;27.90;99.90;;;;;;4993438;28;20104;-76
2021/06/20 05:45:55;;;;;;;4.90;3.67;;;27.80;99.90;;;;;;4993427;28;20049;-77
2021/06/20 05:48:22;;;;;;;5.78;3.45;;;28.40;99.90;;;;;;4993784;28;20154;-78
2021/06/20 05:50:49;;;;;;;4.13;3.40;;;28.80;99.90;;;;;;4993246;28;20140;-76
2021/06/20 05:53:16;;;;;;;5.07;3.60;;;29.00;99.90;;;;;;4993177;28;20129;-78
2021/06/20 05:55:44;;;;;;;6.65;3.45;;;29.20;99.90;;;;;;4993525;28;20056;-79
2021/06/20 05:58:11;;;;;;;6.40;3.40;;;29.30;99.90;;;;;;4993968;28;20050;-78
2021/06/20 06:00:38;;;;;;;4.47;3.40;;;29.70;99.90;;;;;;4993389;28;20057;-76
2021/06/20 06:03:05;;;;;;;4.85;3.45;;;29.60;99.90;;;;;;4993257;28;20149;-77
2021/06/20 06:05:32;;;;;;;6.57;3.85;;;29.60;99.90;;;;;;4992483;28;20133;-77
2021/06/20 06:08:00;;;;;;;5.82;3.50;;;29.90;99.90;;;;;;4992806;28;20129;-76
2021/06/20 06:10:28;;;;;;;5.47;3.45;;;29.90;99.90;;;;;;4992244;28;20085;-79
2021/06/20 06:12:57;;;;;;;4.03;3.00;;;30.30;99.90;;;;;;4992117;28;20482;-74
2021/06/20 06:15:24;;;;;;;4.70;3.67;;;30.70;99.90;;;;;;4992229;28;20167;-76
2021/06/20 06:17:51;;;;;;;5.72;3.22;;;30.60;99.90;;;;;;4992406;28;20511;-78
2021/06/20 06:20:19;;;;;;;5.13;3.30;;;30.60;99.90;;;;;;4992180;28;20050;-78
2021/06/20 06:22:46;;;;;;;7.85;3.50;;;30.70;99.90;;;;;;4991801;28;20478;-76
2021/06/20 06:25:14;;;;;;;5.60;3.40;;;30.70;99.90;;;;;;4992096;28;20085;-77
2021/06/20 06:27:41;;;;;;;4.80;3.30;;;30.80;99.90;;;;;;4992099;28;20089;-76
2021/06/20 06:30:11;;;;;;;4.78;3.45;;;30.90;99.90;;;;;;4992249;28;20112;-77
2021/06/20 06:32:38;;;;;;;6.65;3.38;;;31.10;99.90;;;;;;4991954;28;20052;-76
2021/06/20 06:35:06;;;;;;;5.63;3.35;;;31.10;99.90;;;;;;4992130;28;20113;-78
2021/06/20 06:37:33;;;;;;;5.45;3.10;;;31.40;99.90;;;;;;4992198;28;20092;-77
2021/06/20 06:40:00;;;;;;;4.57;3.45;;;31.00;99.90;;;;;;4992242;28;20491;-77
2021/06/20 06:42:27;;;;;;;4.57;3.08;;;31.00;99.90;;;;;;4992016;28;20050;-78
2021/06/20 06:44:55;;;;;;;5.18;3.10;;;31.20;99.90;;;;;;4992004;28;20050;-78
2021/06/20 06:47:24;;;;;;;4.63;3.22;;;31.10;99.90;;;;;;4992336;28;20050;-78
2021/06/20 06:49:52;;;;;;;7.18;3.42;;;30.90;99.90;;;;;;4993003;28;20137;-78
2021/06/20 06:52:19;;;;;;;5.15;3.13;;;31.40;99.90;;;;;;4992414;28;20050;-79
2021/06/20 06:54:51;;;;;;;5.10;3.30;;;31.70;99.90;;;;;;4992140;28;20054;-81
2021/06/20 06:57:17;;;;;;;;;;;31.90;99.90;;;;;;4993327;28;20050;-79
2021/06/20 06:59:44;;;;;;;7.13;3.22;;;31.70;99.90;;;;;;4992444;28;20294;-79
2021/06/20 07:02:11;;;;;;;5.82;3.28;;;31.50;99.90;;;;;;4992501;28;20223;-77
2021/06/20 07:04:39;;;;;;;3.58;3.03;;;31.60;99.90;;;;;;4992125;28;20133;-78
2021/06/20 07:07:06;;;;;;;4.63;3.25;;;31.60;99.90;;;;;;4992343;28;20089;-77
2021/06/20 07:09:33;;;;;;;3.22;2.83;;;31.50;99.90;;;;;;4992155;28;20050;-78
2021/06/20 07:12:01;;;;;;;4.95;3.03;;;31.30;99.90;;;;;;4991999;28;20065;-78
2021/06/20 07:14:29;;;;;;;5.55;3.40;;;31.40;99.90;;;;;;4992258;28;20050;-78
2021/06/20 07:16:56;;;;;;;3.63;2.70;;;31.40;99.90;;;;;;4995311;28;20525;-78
2021/06/20 07:19:23;;;;;;;7.68;3.20;;;30.90;99.90;;;;;;4995542;28;20562;-78
2021/06/20 07:21:51;;;;;;;3.75;3.00;;;30.70;99.90;;;;;;4995284;28;20046;-77
2021/06/20 07:24:18;;;;;;;5.50;2.80;;;30.90;99.90;;;;;;4995196;28;20050;-78
2021/06/20 07:26:45;;;;;;;4.97;3.17;;;30.90;99.90;;;;;;4995939;28;20064;-77
2021/06/20 07:29:12;;;;;;;4.60;3.03;;;31.30;99.90;;;;;;4995895;28;20141;-79
2021/06/20 07:31:39;;;;;;;3.72;3.15;;;31.30;99.90;;;;;;4995623;28;20053;-78
2021/06/20 07:34:05;;;;;;;5.75;3.60;;;31.10;99.90;;;;;;4995492;28;20050;-82
2021/06/20 07:36:32;;;;;;;4.10;3.20;;;30.80;99.90;;;;;;4995857;28;20140;-79
2021/06/20 07:39:02;;;;;;;3.47;3.08;;;30.50;99.90;;;;;;4995376;28;20097;-78
2021/06/20 07:41:29;;;;;;;4.20;2.90;;;30.40;99.90;;;;;;4995811;28;20097;-79
2021/06/20 07:43:56;;;;;;;4.20;2.97;;;30.70;99.90;;;;;;4995442;28;20086;-79
2021/06/20 07:46:23;;;;;;;2.85;2.55;;;30.30;99.90;;;;;;4996588;28;20137;-80
2021/06/20 07:48:50;;;;;;;3.90;3.50;;;30.10;99.90;;;;;;4997958;28;20125;-80
2021/06/20 07:51:17;;;;;;;4.85;3.00;;;30.20;99.90;;;;;;4998776;28;20411;-78
2021/06/20 07:53:44;;;;;;;6.40;3.30;;;30.70;99.90;;;;;;4995173;28;20057;-78
2021/06/20 07:56:12;;;;;;;5.00;3.58;;;31.00;99.90;;;;;;4996280;28;20138;-81
2021/06/20 07:58:39;;;;;;;4.45;3.42;;;31.40;99.90;;;;;;4995029;28;20117;-79
2021/06/20 08:01:06;;;;;;;3.97;2.88;;;31.20;99.90;;;;;;4995309;28;20129;-79
2021/06/20 08:03:34;;;;;;;3.15;2.80;;;30.90;99.90;;;;;;4995001;28;20046;-77
2021/06/20 08:06:02;;;;;;;3.45;2.92;;;30.50;99.90;;;;;;4995087;28;20057;-77
2021/06/20 08:08:29;;;;;;;3.38;2.70;;;30.40;99.90;;;;;;4995159;28;20141;-80
2021/06/20 08:10:57;;;;;;;5.15;3.30;;;30.40;99.90;;;;;;4995141;28;20054;-77
2021/06/20 08:13:26;;;;;;;3.38;3.08;;;30.40;99.90;;;;;;4994743;28;20050;-79
2021/06/20 08:15:52;;;;;;;4.00;3.15;;;30.60;99.90;;;;;;4995533;28;20054;-78
2021/06/20 08:18:19;;;;;;;4.97;3.13;;;30.50;99.90;;;;;;4998964;28;20066;-78
2021/06/20 08:20:49;;;;;;;3.50;2.90;;;30.80;99.90;;;;;;4994481;28;20089;-78
2021/06/20 08:23:15;;;;;;;6.82;2.97;;;30.70;99.90;;;;;;4994291;28;20538;-77
2021/06/20 08:25:42;;;;;;;4.68;2.58;;;30.70;99.90;;;;;;4994571;28;20491;-79
2021/06/20 08:28:09;;;;;;;3.05;2.83;;;30.70;99.90;;;;;;4993848;28;20430;-79
2021/06/20 08:30:38;;;;;;;4.43;3.13;;;30.80;99.90;;;;;;4994267;28;20058;-79
2021/06/20 08:33:05;;;;;;;3.78;2.92;;;30.90;99.90;;;;;;4994021;28;20137;-79
2021/06/20 08:35:32;;;;;;;4.57;2.88;;;30.40;99.90;;;;;;4993975;28;20061;-77
2021/06/20 08:37:58;;;;;;;4.53;3.00;;;29.70;99.90;;;;;;4994305;28;20054;-78
2021/06/20 08:40:25;;;;;;;6.28;2.95;;;29.30;99.90;;;;;;4994413;28;20133;-77
2021/06/20 08:42:52;;;;;;;4.15;2.83;;;29.10;99.90;;;;;;4994406;28;20506;-76
2021/06/20 08:45:19;;;;;;;3.38;2.75;;;29.10;99.90;;;;;;4994135;28;20129;-77
2021/06/20 08:47:48;;;;;;;3.97;2.78;;;29.30;99.90;;;;;;4994196;28;20487;-77
2021/06/20 08:50:15;;;;;;;4.13;2.85;;;29.50;99.90;;;;;;4994396;28;20086;-77
2021/06/20 08:52:42;;;;;;;5.35;2.53;;;29.80;99.90;;;;;;4993959;28;20080;-76
2021/06/20 08:55:12;;;;;;;3.53;2.47;;;29.70;99.90;;;;;;4994124;28;20074;-76
2021/06/20 08:57:40;;;;;;;2.63;2.42;;;29.20;99.90;;;;;;4994155;28;20112;-76
2021/06/20 09:00:10;;;;;;;3.80;3.20;;;28.70;99.90;;;;;;4994156;28;20088;-76
2021/06/20 09:02:58;;;;;;;3.45;2.95;;;28.20;99.90;;;;;;4994064;28;20137;-76
2021/06/20 09:05:25;;;;;;;2.80;2.60;;;28.00;99.90;;;;;;4994561;28;20046;-77
2021/06/20 09:07:52;;;;;;;4.10;3.10;;;27.70;99.90;;;;;;4994399;28;20135;-80
2021/06/20 09:10:21;;;;;;;3.20;2.90;;;27.80;99.90;;;;;;4994218;28;20141;-77
2021/06/20 09:12:50;;;;;;;3.70;3.15;;;27.80;99.90;;;;;;4996148;28;20081;-80
2021/06/20 09:15:20;;;;;;;4.35;3.00;;;27.80;99.90;;;;;;5004483;28;20466;-76
2021/06/20 09:17:49;;;;;;;5.07;3.20;;;28.00;99.90;;;;;;5004675;28;20144;-77
2021/06/20 09:20:18;;;;;;;4.55;2.90;;;28.70;99.90;;;;;;5001323;28;20521;-78
2021/06/20 09:23:07;;;;;;;4.13;2.92;;;29.40;99.90;;;;;;5005306;28;20046;-79
2021/06/20 09:25:35;;;;;;;4.22;3.00;;;29.80;99.90;;;;;;4999613;28;20050;-77
2021/06/20 09:28:04;;;;;;;4.55;3.03;;;30.10;99.90;;;;;;5002357;28;20053;-77
2021/06/20 09:30:34;;;;;;;4.80;3.00;;;30.40;99.90;;;;;;4993335;28;20133;-77
2021/06/20 09:33:06;;;;;;;4.05;3.05;;;30.30;99.90;;;;;;4992742;28;20187;-81
2021/06/20 09:35:42;;;;;;;4.00;3.13;;;30.20;99.90;;;;;;5001911;28;20065;-77
2021/06/20 09:38:10;;;;;;;4.38;2.85;;;29.80;99.90;;;;;;5000684;28;20657;-76
2021/06/20 09:40:38;;;;;;;3.38;2.90;;;29.70;99.90;;;;;;5002214;28;20081;-77
2021/06/20 09:43:13;;;;;;;3.35;2.65;;;29.80;99.90;;;;;;5002150;28;20072;-78
2021/06/20 09:45:44;;;;;;;3.33;3.03;;;30.10;99.90;;;;;;5003110;28;20076;-78
2021/06/20 09:48:22;;;;;;;3.67;3.08;;;30.10;99.90;;;;;;4996009;28;20137;-79
2021/06/20 09:50:50;;;;;;;4.25;2.97;;;29.60;99.90;;;;;;5002478;28;20076;-79
2021/06/20 09:53:21;;;;;;;4.22;2.70;;;29.40;99.90;;;;;;4988443;28;20142;-86
2021/06/20 09:55:48;;;;;;;3.90;3.08;;;29.20;99.90;;;;;;4991900;28;20105;-79
2021/06/20 09:58:22;;;;;;;4.20;3.00;;;29.00;99.90;;;;;;4994502;28;20133;-79
2021/06/20 10:00:49;;;;;;;4.40;2.80;;;28.70;99.90;;;;;;4990465;28;20053;-82
2021/06/20 10:03:24;;;;;;;4.25;2.85;;;28.90;99.90;;;;;;4982212;28;20074;-78
2021/06/20 10:05:54;;;;;;;4.20;2.83;;;29.40;99.90;;;;;;4988675;28;20050;-78
2021/06/20 10:08:22;;;;;;;4.85;3.10;;;29.70;99.90;;;;;;4973101;28;20125;-78
2021/06/20 10:10:49;;;;;;;3.47;3.10;;;29.40;99.90;;;;;;4981047;28;20069;-79
2021/06/20 10:13:16;;;;;;;5.43;3.28;;;29.20;99.90;;;;;;4994204;28;20088;-79
2021/06/20 10:15:43;;;;;;;3.20;2.90;;;29.20;99.90;;;;;;4989256;28;20133;-78
2021/06/20 10:18:12;;;;;;;5.45;3.42;;;29.20;99.90;;;;;;4978019;28;20069;-79
2021/06/20 10:20:40;;;;;;;3.42;3.05;;;29.20;99.90;;;;;;4976864;28;20051;-79
2021/06/20 10:23:19;;;;;;;3.47;3.13;;;28.90;99.90;;;;;;4983693;28;20581;-79
2021/06/20 10:25:46;;;;;;;4.30;3.17;;;28.80;99.90;;;;;;4992175;28;20133;-79
2021/06/20 10:28:15;;;;;;;5.05;3.33;;;28.70;99.90;;;;;;4985905;28;20137;-79
2021/06/20 10:30:44;;;;;;;4.43;3.20;;;28.70;99.90;;;;;;4991753;28;20136;-78
2021/06/20 10:33:13;;;;;;;5.20;3.20;;;28.70;99.90;;;;;;4989420;28;20145;-79
2021/06/20 10:35:42;;;;;;;3.97;2.92;;;28.80;99.90;;;;;;4982988;28;20050;-78
2021/06/20 10:38:09;;;;;;;4.95;3.40;;;29.00;99.90;;;;;;4980878;28;20137;-80
2021/06/20 10:40:43;;;;;;;6.43;3.90;;;29.20;99.90;;;;;;4981789;28;20145;-78
2021/06/20 10:43:19;;;;;;;4.00;3.53;;;29.30;99.90;;;;;;4989231;28;20101;-80
2021/06/20 10:45:47;;;;;;;5.32;3.50;;;29.30;99.90;;;;;;4991423;28;20051;-77
2021/06/20 10:48:26;;;;;;;4.75;3.20;;;29.20;99.90;;;;;;4992582;28;20133;-78
2021/06/20 10:57:45;;;;;;;;;;;;;;;;;;;;;
2021/06/20 11:08:04;;;;;;;3.72;3.00;;;29.20;99.90;;;;;;4999986;28;20046;-78
2021/06/20 11:10:33;;;;;;;4.07;2.80;;;29.20;99.90;;;;;;4992367;28;20153;-78
2021/06/20 11:13:00;;;;;;;3.75;3.40;;;29.50;99.90;;;;;;5001522;28;20141;-77
2021/06/20 11:15:27;;;;;;;3.40;3.10;;;29.40;99.90;;;;;;5008404;28;20089;-77
2021/06/20 11:18:05;;;;;;;3.33;3.03;;;29.40;99.90;;;;;;4993254;28;20046;-77
2021/06/20 11:20:33;;;;;;;3.22;2.88;;;29.40;99.90;;;;;;5003969;28;20565;-76
2021/06/20 11:23:01;;;;;;;4.97;3.33;;;29.70;99.90;;;;;;4997816;28;20530;-78
2021/06/20 11:25:29;;;;;;;4.03;3.20;;;29.70;99.90;;;;;;5010473;28;20114;-78
2021/06/20 11:27:56;;;;;;;4.07;3.08;;;29.60;99.90;;;;;;5001467;28;20046;-77
2021/06/20 11:30:24;;;;;;;4.60;2.85;;;29.60;99.90;;;;;;5015718;28;20085;-77
2021/06/20 11:32:51;;;;;;;4.68;3.13;;;29.60;99.90;;;;;;5004928;28;20062;-77
2021/06/20 11:35:20;;;;;;;3.25;2.83;;;29.50;99.90;;;;;;4999171;28;20074;-83
2021/06/20 11:37:49;;;;;;;3.35;3.05;;;29.20;99.90;;;;;;5010021;28;20065;-77
2021/06/20 11:40:19;;;;;;;3.50;3.20;;;29.10;99.90;;;;;;5002153;28;20046;-78
2021/06/20 11:42:48;;;;;;;3.67;3.20;;;29.00;99.90;;;;;;5000882;28;20072;-79
2021/06/20 11:45:19;;;;;;;4.55;3.20;;;29.10;99.90;;;;;;4992801;28;20141;-81
2021/06/20 11:47:47;;;;;;;5.00;3.30;;;29.10;99.90;;;;;;4989708;28;20573;-78
2021/06/20 11:50:17;;;;;;;3.60;3.08;;;29.00;99.90;;;;;;4986048;28;20486;-79
2021/06/20 11:52:45;;;;;;;3.45;3.08;;;29.00;99.90;;;;;;5001461;28;20072;-79
2021/06/20 11:57:41;;;;;;;4.00;2.97;;;29.30;99.90;;;;;;5008540;28;20049;-80
2021/06/20 12:00:11;;;;;;;3.28;3.00;;;29.30;99.90;;;;;;5023148;28;20054;-79
2021/06/20 12:02:38;;;;;;;3.47;3.15;;;29.10;99.90;;;;;;5009401;28;20073;-80
2021/06/20 12:05:06;;;;;;;3.95;3.08;;;29.10;99.90;;;;;;5021680;28;20050;-80
2021/06/20 12:07:33;;;;;;;3.28;2.97;;;29.10;99.90;;;;;;4992388;28;20050;-79
2021/06/20 12:10:01;;;;;;;5.43;3.20;;;29.30;99.90;;;;;;5017206;28;20529;-81
2021/06/20 12:12:28;;;;;;;3.63;2.88;;;29.40;99.90;;;;;;5015232;28;20053;-78
2021/06/20 12:15:01;;;;;;;5.55;3.60;;;29.50;99.90;;;;;;5021173;28;20082;-81
2021/06/20 12:17:28;;;;;;;3.72;3.05;;;29.60;99.90;;;;;;5014198;28;20085;-78
2021/06/20 12:19:56;;;;;;;6.88;3.13;;;29.70;99.90;;;;;;5028826;28;20188;-79
2021/06/20 12:22:26;;;;;;;4.75;3.03;;;29.80;99.90;;;;;;5022188;28;20144;-78
2021/06/20 12:24:58;;;;;;;5.43;3.58;;;29.90;99.90;;;;;;5018972;28;20046;-80
2021/06/20 12:27:32;;;;;;;;;;;29.80;99.90;;;;;;5026706;28;20057;-79
2021/06/20 12:30:11;;;;;;;4.65;3.00;;;29.70;99.90;;;;;;5019050;28;19967;-78
2021/06/20 12:32:39;;;;;;;4.82;3.40;;;29.50;99.90;;;;;;5013129;28;20046;-78
2021/06/20 12:35:07;;;;;;;3.72;3.10;;;29.40;99.90;;;;;;5017216;28;20130;-78
2021/06/20 12:37:40;;;;;;;6.78;3.10;;;29.50;99.90;;;;;;4987731;28;20133;-80
2021/06/20 12:40:12;;;;;;;3.65;2.85;;;29.70;99.90;;;;;;4996591;28;20054;-82
2021/06/20 12:42:55;;;;;;;5.07;3.22;;;29.70;99.90;;;;;;4998995;28;20050;-81
2021/06/20 12:45:25;;;;;;;3.10;2.80;;;29.70;99.90;;;;;;5000489;28;20078;-80
2021/06/20 12:47:53;;;;;;;3.90;3.00;;;29.60;99.90;;;;;;4997188;28;20522;-83
2021/06/20 12:50:30;;;;;;;4.68;3.33;;;29.60;99.90;;;;;;4996578;28;20108;-81
2021/06/20 12:53:00;;;;;;;3.72;3.17;;;29.40;99.90;;;;;;4998149;28;20458;-82
2021/06/20 12:55:32;;;;;;;5.85;3.35;;;29.20;99.90;;;;;;4995949;28;20105;-80
2021/06/20 12:58:14;;;;;;;4.07;2.88;;;29.10;99.90;;;;;;5018590;28;20109;-81
2021/06/20 13:00:45;;;;;;;3.38;3.08;;;29.10;99.90;;;;;;5012861;28;20073;-84
2021/06/20 13:03:33;;;;;;;4.40;3.33;;;29.20;99.90;;;;;;5025266;28;20054;-81
2021/06/20 13:11:54;;;;;;;3.40;3.10;;;29.30;99.90;;;;;;5014923;28;20069;-80
2021/06/20 13:14:29;;;;;;;3.60;3.30;;;29.40;99.90;;;;;;5024128;28;20045;-81
2021/06/20 13:17:10;;;;;;;6.25;3.50;;;29.40;99.90;;;;;;5016008;28;20058;-83
2021/06/20 13:20:28;;;;;;;;;;;;;;;;;;;;;